sensor_id;sensor_type;location;lat;lon;timestamp;temperature;humidity
33863;DHT22;20158;51.436;-2.742;2022-12-10T00:00:51;0.50;55.90
33863;DHT22;20158;51.436;-2.742;2022-12-10T00:03:37;0.50;56.00
33863;DHT22;20158;51.436;-2.742;2022-12-10T00:06:24;0.40;55.80
33863;DHT22;20158;51.436;-2.742;2022-12-10T00:09:12;0.50;56.00
33863;DHT22;20158;51.436;-2.742;2022-12-10T00:11:56;0.50;56.00
33863;DHT22;20158;51.436;-2.742;2022-12-10T00:14:41;0.50;55.90
33863;DHT22;20158;51.436;-2.742;2022-12-10T00:17:26;0.40;55.70
33863;DHT22;20158;51.436;-2.742;2022-12-10T00:20:10;0.40;55.70
33863;DHT22;20158;51.436;-2.742;2022-12-10T00:22:55;0.40;55.70
33863;DHT22;20158;51.436;-2.742;2022-12-10T00:25:40;0.40;55.70
33863;DHT22;20158;51.436;-2.742;2022-12-10T00:28:24;0.40;55.70
33863;DHT22;20158;51.436;-2.742;2022-12-10T00:31:12;0.40;55.70
33863;DHT22;20158;51.436;-2.742;2022-12-10T00:33:59;0.40;55.80
33863;DHT22;20158;51.436;-2.742;2022-12-10T00:36:46;0.40;55.60
33863;DHT22;20158;51.436;-2.742;2022-12-10T00:39:30;0.40;55.60
33863;DHT22;20158;51.436;-2.742;2022-12-10T00:42:15;0.40;55.60
33863;DHT22;20158;51.436;-2.742;2022-12-10T00:45:00;0.40;55.60
33863;DHT22;20158;51.436;-2.742;2022-12-10T00:47:44;0.30;55.50
33863;DHT22;20158;51.436;-2.742;2022-12-10T00:50:29;0.30;55.40
33863;DHT22;20158;51.436;-2.742;2022-12-10T00:53:13;0.30;55.40
33863;DHT22;20158;51.436;-2.742;2022-12-10T00:55:59;0.30;55.40
33863;DHT22;20158;51.436;-2.742;2022-12-10T00:58:43;0.30;56.00
33863;DHT22;20158;51.436;-2.742;2022-12-10T01:01:37;0.30;55.40
33863;DHT22;20158;51.436;-2.742;2022-12-10T01:04:22;0.20;55.30
33863;DHT22;20158;51.436;-2.742;2022-12-10T01:07:07;0.20;55.30
33863;DHT22;20158;51.436;-2.742;2022-12-10T01:09:51;0.20;55.30
33863;DHT22;20158;51.436;-2.742;2022-12-10T01:12:36;0.20;55.30
33863;DHT22;20158;51.436;-2.742;2022-12-10T01:15:20;0.10;55.10
33863;DHT22;20158;51.436;-2.742;2022-12-10T01:18:05;0.10;55.10
33863;DHT22;20158;51.436;-2.742;2022-12-10T01:20:50;0.10;55.20
33863;DHT22;20158;51.436;-2.742;2022-12-10T01:23:37;0.10;55.20
33863;DHT22;20158;51.436;-2.742;2022-12-10T01:26:25;0.00;55.00
33863;DHT22;20158;51.436;-2.742;2022-12-10T01:29:10;0.10;55.20
33863;DHT22;20158;51.436;-2.742;2022-12-10T01:31:58;0.00;55.00
33863;DHT22;20158;51.436;-2.742;2022-12-10T01:34:43;0.00;55.00
33863;DHT22;20158;51.436;-2.742;2022-12-10T01:37:27;0.10;55.20
33863;DHT22;20158;51.436;-2.742;2022-12-10T01:40:12;0.00;55.00
33863;DHT22;20158;51.436;-2.742;2022-12-10T01:42:56;0.00;55.00
33863;DHT22;20158;51.436;-2.742;2022-12-10T01:45:41;0.00;55.00
33863;DHT22;20158;51.436;-2.742;2022-12-10T01:48:25;0.00;55.00
33863;DHT22;20158;51.436;-2.742;2022-12-10T01:51:11;-0.10;54.80
33863;DHT22;20158;51.436;-2.742;2022-12-10T01:53:57;-0.10;54.80
33863;DHT22;20158;51.436;-2.742;2022-12-10T01:56:45;-0.10;54.80
33863;DHT22;20158;51.436;-2.742;2022-12-10T01:59:32;-0.10;54.90
33863;DHT22;20158;51.436;-2.742;2022-12-10T02:05:48;-0.10;54.90
33863;DHT22;20158;51.436;-2.742;2022-12-10T02:08:45;-0.20;54.70
33863;DHT22;20158;51.436;-2.742;2022-12-10T02:15:12;-0.20;54.70
33863;DHT22;20158;51.436;-2.742;2022-12-10T02:18:04;-0.30;54.50
33863;DHT22;20158;51.436;-2.742;2022-12-10T02:20:52;-0.20;54.70
33863;DHT22;20158;51.436;-2.742;2022-12-10T02:23:43;-0.30;54.50
33863;DHT22;20158;51.436;-2.742;2022-12-10T02:29:43;-0.30;54.50
33863;DHT22;20158;51.436;-2.742;2022-12-10T02:32:35;-0.30;54.50
33863;DHT22;20158;51.436;-2.742;2022-12-10T02:35:28;-0.30;54.40
33863;DHT22;20158;51.436;-2.742;2022-12-10T02:38:27;-0.30;54.50
33863;DHT22;20158;51.436;-2.742;2022-12-10T02:41:21;-0.30;54.50
33863;DHT22;20158;51.436;-2.742;2022-12-10T02:44:10;-0.30;54.50
33863;DHT22;20158;51.436;-2.742;2022-12-10T02:46:57;-0.30;54.50
33863;DHT22;20158;51.436;-2.742;2022-12-10T02:49:49;-0.40;54.30
33863;DHT22;20158;51.436;-2.742;2022-12-10T02:52:35;-0.40;54.30
33863;DHT22;20158;51.436;-2.742;2022-12-10T02:55:19;-0.40;54.30
33863;DHT22;20158;51.436;-2.742;2022-12-10T03:01:12;-0.40;54.40
33863;DHT22;20158;51.436;-2.742;2022-12-10T03:04:12;-0.40;54.30
33863;DHT22;20158;51.436;-2.742;2022-12-10T03:07:05;-0.40;54.30
33863;DHT22;20158;51.436;-2.742;2022-12-10T03:10:00;-0.50;54.20
33863;DHT22;20158;51.436;-2.742;2022-12-10T03:12:55;-0.50;54.20
33863;DHT22;20158;51.436;-2.742;2022-12-10T03:15:43;-0.50;54.20
33863;DHT22;20158;51.436;-2.742;2022-12-10T03:18:30;-0.50;54.20
33863;DHT22;20158;51.436;-2.742;2022-12-10T03:21:16;-0.50;54.20
33863;DHT22;20158;51.436;-2.742;2022-12-10T03:24:01;-0.50;54.20
33863;DHT22;20158;51.436;-2.742;2022-12-10T03:26:47;-0.40;54.30
33863;DHT22;20158;51.436;-2.742;2022-12-10T03:29:48;-0.40;54.30
33863;DHT22;20158;51.436;-2.742;2022-12-10T03:32:33;-0.40;54.20
33863;DHT22;20158;51.436;-2.742;2022-12-10T03:35:20;-0.40;54.20
33863;DHT22;20158;51.436;-2.742;2022-12-10T03:38:05;-0.40;54.10
33863;DHT22;20158;51.436;-2.742;2022-12-10T03:40:49;-0.40;54.10
33863;DHT22;20158;51.436;-2.742;2022-12-10T03:43:33;-0.40;54.10
33863;DHT22;20158;51.436;-2.742;2022-12-10T03:46:18;-0.40;54.10
33863;DHT22;20158;51.436;-2.742;2022-12-10T03:49:03;-0.40;54.10
33863;DHT22;20158;51.436;-2.742;2022-12-10T03:51:49;-0.40;54.10
33863;DHT22;20158;51.436;-2.742;2022-12-10T03:54:33;-0.40;54.20
33863;DHT22;20158;51.436;-2.742;2022-12-10T03:57:18;-0.50;54.00
33863;DHT22;20158;51.436;-2.742;2022-12-10T04:00:06;-0.40;54.20
33863;DHT22;20158;51.436;-2.742;2022-12-10T04:02:56;-0.50;54.00
33863;DHT22;20158;51.436;-2.742;2022-12-10T04:05:40;-0.50;54.00
33863;DHT22;20158;51.436;-2.742;2022-12-10T04:08:25;-0.50;54.00
33863;DHT22;20158;51.436;-2.742;2022-12-10T04:11:11;-0.60;53.80
33863;DHT22;20158;51.436;-2.742;2022-12-10T04:13:56;-0.60;53.80
33863;DHT22;20158;51.436;-2.742;2022-12-10T04:17:00;-0.60;53.90
33863;DHT22;20158;51.436;-2.742;2022-12-10T04:19:44;-0.60;53.90
33863;DHT22;20158;51.436;-2.742;2022-12-10T04:22:29;-0.60;53.90
33863;DHT22;20158;51.436;-2.742;2022-12-10T04:25:32;-0.60;54.00
33863;DHT22;20158;51.436;-2.742;2022-12-10T04:28:35;-0.60;53.90
33863;DHT22;20158;51.436;-2.742;2022-12-10T04:31:20;-0.60;53.90
33863;DHT22;20158;51.436;-2.742;2022-12-10T04:34:04;-0.70;53.80
33863;DHT22;20158;51.436;-2.742;2022-12-10T04:36:49;-0.70;53.80
33863;DHT22;20158;51.436;-2.742;2022-12-10T04:39:34;-0.70;53.80
33863;DHT22;20158;51.436;-2.742;2022-12-10T04:42:20;-0.70;53.80
33863;DHT22;20158;51.436;-2.742;2022-12-10T04:45:05;-0.70;53.80
33863;DHT22;20158;51.436;-2.742;2022-12-10T04:47:50;-0.70;53.80
33863;DHT22;20158;51.436;-2.742;2022-12-10T04:50:34;-0.70;53.80
33863;DHT22;20158;51.436;-2.742;2022-12-10T04:53:19;-0.70;53.80
33863;DHT22;20158;51.436;-2.742;2022-12-10T04:56:03;-0.70;53.70
33863;DHT22;20158;51.436;-2.742;2022-12-10T04:58:49;-0.70;53.70
33863;DHT22;20158;51.436;-2.742;2022-12-10T05:01:33;-0.70;53.70
33863;DHT22;20158;51.436;-2.742;2022-12-10T05:04:18;-0.70;53.70
33863;DHT22;20158;51.436;-2.742;2022-12-10T05:07:03;-0.70;53.70
33863;DHT22;20158;51.436;-2.742;2022-12-10T05:09:48;-0.70;53.90
33863;DHT22;20158;51.436;-2.742;2022-12-10T05:12:32;-0.70;53.80
33863;DHT22;20158;51.436;-2.742;2022-12-10T05:15:18;-0.70;53.80
33863;DHT22;20158;51.436;-2.742;2022-12-10T05:18:03;-0.70;53.80
33863;DHT22;20158;51.436;-2.742;2022-12-10T05:20:48;-0.80;53.60
33863;DHT22;20158;51.436;-2.742;2022-12-10T05:23:35;-0.70;53.80
33863;DHT22;20158;51.436;-2.742;2022-12-10T05:26:22;-0.70;53.80
33863;DHT22;20158;51.436;-2.742;2022-12-10T05:29:07;-0.80;53.60
33863;DHT22;20158;51.436;-2.742;2022-12-10T05:31:52;-0.80;53.60
33863;DHT22;20158;51.436;-2.742;2022-12-10T05:34:37;-0.80;53.60
33863;DHT22;20158;51.436;-2.742;2022-12-10T05:37:21;-0.70;53.80
33863;DHT22;20158;51.436;-2.742;2022-12-10T05:40:06;-0.80;53.60
33863;DHT22;20158;51.436;-2.742;2022-12-10T05:42:51;-0.80;53.60
33863;DHT22;20158;51.436;-2.742;2022-12-10T05:45:35;-0.80;53.50
33863;DHT22;20158;51.436;-2.742;2022-12-10T05:48:20;-0.80;53.60
33863;DHT22;20158;51.436;-2.742;2022-12-10T05:51:10;-0.80;53.60
33863;DHT22;20158;51.436;-2.742;2022-12-10T05:53:55;-0.80;53.50
33863;DHT22;20158;51.436;-2.742;2022-12-10T05:56:40;-0.80;53.50
33863;DHT22;20158;51.436;-2.742;2022-12-10T05:59:25;-0.80;53.50
33863;DHT22;20158;51.436;-2.742;2022-12-10T06:02:09;-0.80;53.50
33863;DHT22;20158;51.436;-2.742;2022-12-10T06:04:54;-0.80;53.50
33863;DHT22;20158;51.436;-2.742;2022-12-10T06:07:38;-0.80;53.50
33863;DHT22;20158;51.436;-2.742;2022-12-10T06:10:23;-0.80;53.50
33863;DHT22;20158;51.436;-2.742;2022-12-10T06:13:08;-0.80;53.50
33863;DHT22;20158;51.436;-2.742;2022-12-10T06:15:52;-0.80;53.50
33863;DHT22;20158;51.436;-2.742;2022-12-10T06:18:37;-0.80;53.60
33863;DHT22;20158;51.436;-2.742;2022-12-10T06:21:22;-0.80;53.60
33863;DHT22;20158;51.436;-2.742;2022-12-10T06:24:07;-0.80;53.60
33863;DHT22;20158;51.436;-2.742;2022-12-10T06:26:52;-0.80;53.60
33863;DHT22;20158;51.436;-2.742;2022-12-10T06:29:36;-0.80;53.60
33863;DHT22;20158;51.436;-2.742;2022-12-10T06:32:21;-0.80;53.60
33863;DHT22;20158;51.436;-2.742;2022-12-10T06:35:06;-0.80;53.60
33863;DHT22;20158;51.436;-2.742;2022-12-10T06:37:51;-0.80;53.60
33863;DHT22;20158;51.436;-2.742;2022-12-10T06:40:39;-0.80;53.60
33863;DHT22;20158;51.436;-2.742;2022-12-10T06:43:24;-0.80;53.70
33863;DHT22;20158;51.436;-2.742;2022-12-10T06:46:14;-0.80;53.60
33863;DHT22;20158;51.436;-2.742;2022-12-10T06:48:58;-0.80;53.70
33863;DHT22;20158;51.436;-2.742;2022-12-10T06:51:43;-0.80;53.70
33863;DHT22;20158;51.436;-2.742;2022-12-10T06:54:28;-0.70;53.80
33863;DHT22;20158;51.436;-2.742;2022-12-10T06:57:12;-0.70;53.70
33863;DHT22;20158;51.436;-2.742;2022-12-10T06:59:57;-0.60;53.90
33863;DHT22;20158;51.436;-2.742;2022-12-10T07:02:41;-0.60;53.80
33863;DHT22;20158;51.436;-2.742;2022-12-10T07:05:26;-0.60;53.80
33863;DHT22;20158;51.436;-2.742;2022-12-10T07:08:11;-0.50;54.10
33863;DHT22;20158;51.436;-2.742;2022-12-10T07:10:56;-0.50;54.10
33863;DHT22;20158;51.436;-2.742;2022-12-10T07:13:40;-0.40;54.20
33863;DHT22;20158;51.436;-2.742;2022-12-10T07:16:27;-0.40;54.10
33863;DHT22;20158;51.436;-2.742;2022-12-10T07:19:12;-0.30;54.30
33863;DHT22;20158;51.436;-2.742;2022-12-10T07:21:57;-0.20;54.50
33863;DHT22;20158;51.436;-2.742;2022-12-10T07:24:41;-0.10;54.70
33863;DHT22;20158;51.436;-2.742;2022-12-10T07:27:26;0.00;54.80
33863;DHT22;20158;51.436;-2.742;2022-12-10T07:30:11;0.20;55.10
33863;DHT22;20158;51.436;-2.742;2022-12-10T07:32:55;0.30;55.10
33863;DHT22;20158;51.436;-2.742;2022-12-10T07:35:40;0.40;55.10
33863;DHT22;20158;51.436;-2.742;2022-12-10T07:38:25;0.50;55.20
33863;DHT22;20158;51.436;-2.742;2022-12-10T07:41:11;0.50;55.10
33863;DHT22;20158;51.436;-2.742;2022-12-10T07:43:56;0.60;55.40
33863;DHT22;20158;51.436;-2.742;2022-12-10T07:46:40;0.60;55.40
33863;DHT22;20158;51.436;-2.742;2022-12-10T07:49:25;0.60;55.50
33863;DHT22;20158;51.436;-2.742;2022-12-10T07:52:09;0.60;55.50
33863;DHT22;20158;51.436;-2.742;2022-12-10T07:54:54;0.60;55.60
33863;DHT22;20158;51.436;-2.742;2022-12-10T07:57:38;0.60;55.60
33863;DHT22;20158;51.436;-2.742;2022-12-10T08:00:23;0.50;55.50
33863;DHT22;20158;51.436;-2.742;2022-12-10T08:03:07;0.50;55.60
33863;DHT22;20158;51.436;-2.742;2022-12-10T08:06:03;0.50;55.70
33863;DHT22;20158;51.436;-2.742;2022-12-10T08:08:48;0.50;55.70
33863;DHT22;20158;51.436;-2.742;2022-12-10T08:11:33;0.50;55.70
33863;DHT22;20158;51.436;-2.742;2022-12-10T08:14:17;0.50;55.80
33863;DHT22;20158;51.436;-2.742;2022-12-10T08:17:02;0.50;55.80
33863;DHT22;20158;51.436;-2.742;2022-12-10T08:19:47;0.50;55.80
33863;DHT22;20158;51.436;-2.742;2022-12-10T08:22:33;0.50;55.80
33863;DHT22;20158;51.436;-2.742;2022-12-10T08:25:18;0.50;55.80
33863;DHT22;20158;51.436;-2.742;2022-12-10T08:28:03;0.50;55.80
33863;DHT22;20158;51.436;-2.742;2022-12-10T08:30:50;0.50;55.80
33863;DHT22;20158;51.436;-2.742;2022-12-10T08:33:34;0.50;55.70
33863;DHT22;20158;51.436;-2.742;2022-12-10T08:36:20;0.50;55.70
33863;DHT22;20158;51.436;-2.742;2022-12-10T08:39:05;0.50;55.70
33863;DHT22;20158;51.436;-2.742;2022-12-10T08:41:49;0.50;55.70
33863;DHT22;20158;51.436;-2.742;2022-12-10T08:44:34;0.50;55.70
33863;DHT22;20158;51.436;-2.742;2022-12-10T08:47:19;0.50;55.80
33863;DHT22;20158;51.436;-2.742;2022-12-10T08:50:04;0.50;55.80
33863;DHT22;20158;51.436;-2.742;2022-12-10T08:52:48;0.50;55.80
33863;DHT22;20158;51.436;-2.742;2022-12-10T08:55:33;0.50;55.80
33863;DHT22;20158;51.436;-2.742;2022-12-10T08:58:18;0.50;55.90
33863;DHT22;20158;51.436;-2.742;2022-12-10T09:01:12;0.60;56.20
33863;DHT22;20158;51.436;-2.742;2022-12-10T09:03:56;0.70;56.30
33863;DHT22;20158;51.436;-2.742;2022-12-10T09:06:41;0.70;56.20
33863;DHT22;20158;51.436;-2.742;2022-12-10T09:09:25;0.80;56.40
33863;DHT22;20158;51.436;-2.742;2022-12-10T09:12:10;0.80;56.40
33863;DHT22;20158;51.436;-2.742;2022-12-10T09:14:54;0.80;56.40
33863;DHT22;20158;51.436;-2.742;2022-12-10T09:17:40;0.80;56.50
33863;DHT22;20158;51.436;-2.742;2022-12-10T09:20:24;0.80;56.50
33863;DHT22;20158;51.436;-2.742;2022-12-10T09:23:09;0.80;56.50
33863;DHT22;20158;51.436;-2.742;2022-12-10T09:25:53;0.80;56.40
33863;DHT22;20158;51.436;-2.742;2022-12-10T09:28:39;0.80;56.40
33863;DHT22;20158;51.436;-2.742;2022-12-10T09:31:23;0.80;56.40
33863;DHT22;20158;51.436;-2.742;2022-12-10T09:34:08;0.80;56.50
33863;DHT22;20158;51.436;-2.742;2022-12-10T09:36:53;0.90;56.70
33863;DHT22;20158;51.436;-2.742;2022-12-10T09:39:37;0.90;56.70
33863;DHT22;20158;51.436;-2.742;2022-12-10T09:51:34;1.00;56.50
33863;DHT22;20158;51.436;-2.742;2022-12-10T09:57:16;1.10;56.70
33863;DHT22;20158;51.436;-2.742;2022-12-10T10:03:02;1.10;56.70
33863;DHT22;20158;51.436;-2.742;2022-12-10T10:05:49;1.10;56.70
33863;DHT22;20158;51.436;-2.742;2022-12-10T10:08:39;1.20;56.90
33863;DHT22;20158;51.436;-2.742;2022-12-10T10:11:29;1.20;56.90
33863;DHT22;20158;51.436;-2.742;2022-12-10T10:14:25;1.20;56.80
33863;DHT22;20158;51.436;-2.742;2022-12-10T10:17:23;1.20;56.80
33863;DHT22;20158;51.436;-2.742;2022-12-10T10:20:13;1.30;56.90
33863;DHT22;20158;51.436;-2.742;2022-12-10T10:23:00;1.30;56.90
33863;DHT22;20158;51.436;-2.742;2022-12-10T10:25:45;1.30;56.80
33863;DHT22;20158;51.436;-2.742;2022-12-10T10:28:29;1.40;57.00
33863;DHT22;20158;51.436;-2.742;2022-12-10T10:31:24;1.40;57.00
33863;DHT22;20158;51.436;-2.742;2022-12-10T10:34:18;1.50;57.10
33863;DHT22;20158;51.436;-2.742;2022-12-10T10:37:03;1.50;57.10
33863;DHT22;20158;51.436;-2.742;2022-12-10T10:39:50;1.50;57.00
33863;DHT22;20158;51.436;-2.742;2022-12-10T10:42:38;1.60;57.20
33863;DHT22;20158;51.436;-2.742;2022-12-10T10:45:43;1.60;57.20
33863;DHT22;20158;51.436;-2.742;2022-12-10T10:48:32;1.70;57.30
33863;DHT22;20158;51.436;-2.742;2022-12-10T10:51:21;1.80;57.30
33863;DHT22;20158;51.436;-2.742;2022-12-10T10:54:09;1.80;57.30
33863;DHT22;20158;51.436;-2.742;2022-12-10T10:56:54;1.90;57.40
33863;DHT22;20158;51.436;-2.742;2022-12-10T10:59:39;2.00;57.50
33863;DHT22;20158;51.436;-2.742;2022-12-10T11:02:31;2.00;57.40
33863;DHT22;20158;51.436;-2.742;2022-12-10T11:05:24;2.00;57.40
33863;DHT22;20158;51.436;-2.742;2022-12-10T11:08:16;2.10;57.50
33863;DHT22;20158;51.436;-2.742;2022-12-10T11:11:11;2.10;57.30
33863;DHT22;20158;51.436;-2.742;2022-12-10T11:14:21;2.20;57.40
33863;DHT22;20158;51.436;-2.742;2022-12-10T11:20:21;2.30;57.60
33863;DHT22;20158;51.436;-2.742;2022-12-10T11:23:12;2.40;57.80
33863;DHT22;20158;51.436;-2.742;2022-12-10T11:26:11;2.40;57.80
33863;DHT22;20158;51.436;-2.742;2022-12-10T11:35:14;2.70;58.10
33863;DHT22;20158;51.436;-2.742;2022-12-10T11:38:19;2.80;58.20
33863;DHT22;20158;51.436;-2.742;2022-12-10T11:41:53;2.90;58.30
33863;DHT22;20158;51.436;-2.742;2022-12-10T11:44:23;2.90;58.30
33863;DHT22;20158;51.436;-2.742;2022-12-10T12:00:25;3.20;58.70
33863;DHT22;20158;51.436;-2.742;2022-12-10T12:09:35;3.70;59.10
33863;DHT22;20158;51.436;-2.742;2022-12-10T12:12:57;3.90;59.40
33863;DHT22;20158;51.436;-2.742;2022-12-10T12:15:53;4.20;59.70
33863;DHT22;20158;51.436;-2.742;2022-12-10T12:18:57;4.40;59.70
33863;DHT22;20158;51.436;-2.742;2022-12-10T12:21:44;4.50;59.90
33863;DHT22;20158;51.436;-2.742;2022-12-10T12:24:37;4.60;60.00
33863;DHT22;20158;51.436;-2.742;2022-12-10T12:27:24;4.70;60.30
33863;DHT22;20158;51.436;-2.742;2022-12-10T12:30:18;4.70;60.30
33863;DHT22;20158;51.436;-2.742;2022-12-10T12:36:25;4.80;60.30
33863;DHT22;20158;51.436;-2.742;2022-12-10T12:39:32;4.90;60.40
33863;DHT22;20158;51.436;-2.742;2022-12-10T12:42:30;4.80;60.30
33863;DHT22;20158;51.436;-2.742;2022-12-10T12:48:36;4.80;60.50
33863;DHT22;20158;51.436;-2.742;2022-12-10T12:51:26;4.70;60.50
33863;DHT22;20158;51.436;-2.742;2022-12-10T12:54:11;4.70;60.60
33863;DHT22;20158;51.436;-2.742;2022-12-10T12:57:06;4.80;61.00
33863;DHT22;20158;51.436;-2.742;2022-12-10T12:59:58;4.80;61.20
33863;DHT22;20158;51.436;-2.742;2022-12-10T13:03:08;4.80;61.20
33863;DHT22;20158;51.436;-2.742;2022-12-10T13:06:21;4.90;61.50
33863;DHT22;20158;51.436;-2.742;2022-12-10T13:15:02;4.90;61.50
33863;DHT22;20158;51.436;-2.742;2022-12-10T13:24:12;4.90;61.60
33863;DHT22;20158;51.436;-2.742;2022-12-10T13:29:59;4.90;61.60
33863;DHT22;20158;51.436;-2.742;2022-12-10T13:32:46;4.90;61.60
33863;DHT22;20158;51.436;-2.742;2022-12-10T13:35:31;4.90;61.60
33863;DHT22;20158;51.436;-2.742;2022-12-10T13:38:22;5.00;61.70
33863;DHT22;20158;51.436;-2.742;2022-12-10T13:41:07;5.00;61.60
33863;DHT22;20158;51.436;-2.742;2022-12-10T13:44:49;5.10;61.60
33863;DHT22;20158;51.436;-2.742;2022-12-10T13:56:18;5.20;61.60
33863;DHT22;20158;51.436;-2.742;2022-12-10T13:59:29;5.20;61.50
33863;DHT22;20158;51.436;-2.742;2022-12-10T14:08:28;5.30;61.20
33863;DHT22;20158;51.436;-2.742;2022-12-10T14:11:21;5.30;61.20
33863;DHT22;20158;51.436;-2.742;2022-12-10T14:14:11;5.20;61.20
33863;DHT22;20158;51.436;-2.742;2022-12-10T14:17:06;5.20;61.30
33863;DHT22;20158;51.436;-2.742;2022-12-10T14:19:54;5.20;61.60
33863;DHT22;20158;51.436;-2.742;2022-12-10T14:22:48;5.30;62.00
33863;DHT22;20158;51.436;-2.742;2022-12-10T14:25:41;5.40;62.30
33863;DHT22;20158;51.436;-2.742;2022-12-10T14:28:29;5.60;62.60
33863;DHT22;20158;51.436;-2.742;2022-12-10T14:31:20;5.80;62.80
33863;DHT22;20158;51.436;-2.742;2022-12-10T14:34:07;6.00;63.00
33863;DHT22;20158;51.436;-2.742;2022-12-10T14:36:55;6.10;62.90
33863;DHT22;20158;51.436;-2.742;2022-12-10T14:39:40;6.10;62.80
33863;DHT22;20158;51.436;-2.742;2022-12-10T14:42:26;6.20;62.90
33863;DHT22;20158;51.436;-2.742;2022-12-10T14:45:13;6.20;62.90
33863;DHT22;20158;51.436;-2.742;2022-12-10T14:48:00;6.10;62.80
33863;DHT22;20158;51.436;-2.742;2022-12-10T14:50:46;6.20;63.00
33863;DHT22;20158;51.436;-2.742;2022-12-10T14:53:31;6.20;63.10
33863;DHT22;20158;51.436;-2.742;2022-12-10T14:56:35;6.20;63.10
33863;DHT22;20158;51.436;-2.742;2022-12-10T14:59:24;6.20;63.10
33863;DHT22;20158;51.436;-2.742;2022-12-10T15:02:23;6.10;63.00
33863;DHT22;20158;51.436;-2.742;2022-12-10T15:05:35;6.10;63.10
33863;DHT22;20158;51.436;-2.742;2022-12-10T15:08:20;6.00;63.00
33863;DHT22;20158;51.436;-2.742;2022-12-10T15:11:05;5.90;62.90
33863;DHT22;20158;51.436;-2.742;2022-12-10T15:13:52;5.90;63.00
33863;DHT22;20158;51.436;-2.742;2022-12-10T15:16:41;5.80;63.00
33863;DHT22;20158;51.436;-2.742;2022-12-10T15:19:32;5.80;63.00
33863;DHT22;20158;51.436;-2.742;2022-12-10T15:22:21;5.70;62.90
33863;DHT22;20158;51.436;-2.742;2022-12-10T15:25:22;5.70;63.00
33863;DHT22;20158;51.436;-2.742;2022-12-10T15:28:34;5.60;62.80
33863;DHT22;20158;51.436;-2.742;2022-12-10T15:34:13;5.50;62.80
33863;DHT22;20158;51.436;-2.742;2022-12-10T15:37:02;5.50;62.80
33863;DHT22;20158;51.436;-2.742;2022-12-10T15:39:51;5.40;62.70
33863;DHT22;20158;51.436;-2.742;2022-12-10T15:42:42;5.30;62.60
33863;DHT22;20158;51.436;-2.742;2022-12-10T15:45:39;5.30;62.70
33863;DHT22;20158;51.436;-2.742;2022-12-10T15:48:25;5.20;62.60
33863;DHT22;20158;51.436;-2.742;2022-12-10T15:51:10;5.10;62.50
33863;DHT22;20158;51.436;-2.742;2022-12-10T15:53:55;5.10;62.70
33863;DHT22;20158;51.436;-2.742;2022-12-10T15:56:39;5.00;62.60
33863;DHT22;20158;51.436;-2.742;2022-12-10T15:59:24;4.90;62.50
33863;DHT22;20158;51.436;-2.742;2022-12-10T16:02:35;4.80;62.30
33863;DHT22;20158;51.436;-2.742;2022-12-10T16:08:17;4.70;62.40
33863;DHT22;20158;51.436;-2.742;2022-12-10T16:11:11;4.60;62.30
33863;DHT22;20158;51.436;-2.742;2022-12-10T16:13:57;4.60;62.30
33863;DHT22;20158;51.436;-2.742;2022-12-10T16:16:41;4.60;62.40
33863;DHT22;20158;51.436;-2.742;2022-12-10T16:19:26;4.50;62.30
33863;DHT22;20158;51.436;-2.742;2022-12-10T16:22:11;4.40;62.20
33863;DHT22;20158;51.436;-2.742;2022-12-10T16:24:55;4.40;62.30
33863;DHT22;20158;51.436;-2.742;2022-12-10T16:27:40;4.30;62.10
33863;DHT22;20158;51.436;-2.742;2022-12-10T16:30:36;4.30;62.40
33863;DHT22;20158;51.436;-2.742;2022-12-10T16:33:23;4.40;62.90
33863;DHT22;20158;51.436;-2.742;2022-12-10T16:36:10;4.50;62.90
33863;DHT22;20158;51.436;-2.742;2022-12-10T16:38:55;4.50;62.80
33863;DHT22;20158;51.436;-2.742;2022-12-10T16:41:40;4.50;62.70
33863;DHT22;20158;51.436;-2.742;2022-12-10T16:44:24;4.40;62.60
33863;DHT22;20158;51.436;-2.742;2022-12-10T16:47:11;4.30;62.40
33863;DHT22;20158;51.436;-2.742;2022-12-10T16:49:56;4.30;62.50
33863;DHT22;20158;51.436;-2.742;2022-12-10T16:52:41;4.20;62.60
33863;DHT22;20158;51.436;-2.742;2022-12-10T16:55:26;4.20;62.50
33863;DHT22;20158;51.436;-2.742;2022-12-10T16:58:12;4.20;62.60
33863;DHT22;20158;51.436;-2.742;2022-12-10T17:00:58;4.10;62.50
33863;DHT22;20158;51.436;-2.742;2022-12-10T17:03:43;4.10;62.50
33863;DHT22;20158;51.436;-2.742;2022-12-10T17:06:27;4.10;62.50
33863;DHT22;20158;51.436;-2.742;2022-12-10T17:09:12;4.10;62.50
33863;DHT22;20158;51.436;-2.742;2022-12-10T17:11:57;4.00;62.30
33863;DHT22;20158;51.436;-2.742;2022-12-10T17:14:43;4.00;62.40
33863;DHT22;20158;51.436;-2.742;2022-12-10T17:17:31;4.00;62.40
33863;DHT22;20158;51.436;-2.742;2022-12-10T17:20:17;4.00;62.50
33863;DHT22;20158;51.436;-2.742;2022-12-10T17:23:02;3.90;62.80
33863;DHT22;20158;51.436;-2.742;2022-12-10T17:25:47;3.90;62.30
33863;DHT22;20158;51.436;-2.742;2022-12-10T17:28:33;3.80;62.20
33863;DHT22;20158;51.436;-2.742;2022-12-10T17:31:17;3.80;62.30
33863;DHT22;20158;51.436;-2.742;2022-12-10T17:34:03;3.80;62.30
33863;DHT22;20158;51.436;-2.742;2022-12-10T17:36:48;3.70;62.20
33863;DHT22;20158;51.436;-2.742;2022-12-10T17:39:32;3.70;62.70
33863;DHT22;20158;51.436;-2.742;2022-12-10T17:42:17;3.60;62.00
33863;DHT22;20158;51.436;-2.742;2022-12-10T17:45:02;3.60;62.10
33863;DHT22;20158;51.436;-2.742;2022-12-10T17:47:47;3.50;61.90
33863;DHT22;20158;51.436;-2.742;2022-12-10T17:50:34;3.50;62.00
33863;DHT22;20158;51.436;-2.742;2022-12-10T17:53:19;3.40;61.80
33863;DHT22;20158;51.436;-2.742;2022-12-10T17:56:16;3.40;61.90
33863;DHT22;20158;51.436;-2.742;2022-12-10T17:59:01;3.40;61.90
33863;DHT22;20158;51.436;-2.742;2022-12-10T18:01:46;3.30;61.80
33863;DHT22;20158;51.436;-2.742;2022-12-10T18:04:30;3.30;61.80
33863;DHT22;20158;51.436;-2.742;2022-12-10T18:07:17;3.20;61.70
33863;DHT22;20158;51.436;-2.742;2022-12-10T18:10:04;3.20;61.70
33863;DHT22;20158;51.436;-2.742;2022-12-10T18:12:51;3.10;61.60
33863;DHT22;20158;51.436;-2.742;2022-12-10T18:15:37;3.10;61.60
33863;DHT22;20158;51.436;-2.742;2022-12-10T18:18:22;3.10;61.70
33863;DHT22;20158;51.436;-2.742;2022-12-10T18:21:08;3.00;61.50
33863;DHT22;20158;51.436;-2.742;2022-12-10T18:23:53;3.00;61.70
33863;DHT22;20158;51.436;-2.742;2022-12-10T18:26:38;3.10;62.00
33863;DHT22;20158;51.436;-2.742;2022-12-10T18:29:22;3.10;61.90
33863;DHT22;20158;51.436;-2.742;2022-12-10T18:32:10;3.20;62.00
33863;DHT22;20158;51.436;-2.742;2022-12-10T18:34:54;3.10;61.80
33863;DHT22;20158;51.436;-2.742;2022-12-10T18:37:39;3.20;62.00
33863;DHT22;20158;51.436;-2.742;2022-12-10T18:40:24;3.20;61.90
33863;DHT22;20158;51.436;-2.742;2022-12-10T18:43:09;3.10;61.80
33863;DHT22;20158;51.436;-2.742;2022-12-10T18:45:54;3.20;61.90
33863;DHT22;20158;51.436;-2.742;2022-12-10T18:48:38;3.10;61.80
33863;DHT22;20158;51.436;-2.742;2022-12-10T18:51:23;3.10;61.80
33863;DHT22;20158;51.436;-2.742;2022-12-10T18:54:08;3.10;61.80
33863;DHT22;20158;51.436;-2.742;2022-12-10T18:56:53;3.10;62.40
33863;DHT22;20158;51.436;-2.742;2022-12-10T18:59:38;3.10;61.90
33863;DHT22;20158;51.436;-2.742;2022-12-10T19:02:23;3.10;61.90
33863;DHT22;20158;51.436;-2.742;2022-12-10T19:05:07;3.10;62.00
33863;DHT22;20158;51.436;-2.742;2022-12-10T19:07:52;3.20;62.10
33863;DHT22;20158;51.436;-2.742;2022-12-10T19:10:36;3.20;62.10
33863;DHT22;20158;51.436;-2.742;2022-12-10T19:13:21;3.10;61.90
33863;DHT22;20158;51.436;-2.742;2022-12-10T19:16:18;3.10;62.00